createdAt,value
2022-07-26T00:03:22.513Z,21.73
2022-07-26T00:08:28.833Z,21.73
2022-07-26T00:13:34.729Z,21.58
2022-07-26T00:18:40.553Z,21.52
2022-07-26T00:23:46.386Z,21.53
2022-07-26T00:28:51.867Z,21.58
2022-07-26T00:33:57.332Z,21.60
2022-07-26T00:39:03.174Z,21.49
2022-07-26T00:44:08.703Z,21.40
2022-07-26T00:49:14.590Z,21.32
2022-07-26T00:54:20.250Z,21.28
2022-07-26T00:59:25.726Z,21.18
2022-07-26T01:04:32.098Z,21.06
2022-07-26T01:09:38.198Z,20.96
2022-07-26T01:14:47.003Z,20.96
2022-07-26T01:19:52.457Z,20.87
2022-07-26T01:24:57.968Z,20.88
2022-07-26T01:30:03.422Z,20.84
2022-07-26T01:35:09.262Z,20.85
2022-07-26T01:40:15.562Z,20.76
2022-07-26T01:45:21.243Z,20.85
2022-07-26T01:50:26.821Z,20.84
2022-07-26T01:55:32.565Z,20.84
2022-07-26T02:00:38.356Z,20.80
2022-07-26T02:05:43.896Z,20.81
2022-07-26T02:11:03.667Z,20.76
2022-07-26T02:16:11.797Z,20.73
2022-07-26T02:21:17.308Z,20.75
2022-07-26T02:26:23.337Z,20.69
2022-07-26T02:31:32.382Z,20.65
2022-07-26T02:36:36.169Z,20.69
2022-07-26T02:41:42.065Z,20.64
2022-07-26T02:46:47.609Z,20.65
2022-07-26T02:51:53.277Z,20.64
2022-07-26T02:56:58.821Z,20.68
2022-07-26T03:02:04.391Z,20.61
2022-07-26T03:07:09.922Z,20.59
2022-07-26T03:12:15.345Z,20.58
2022-07-26T03:17:21.024Z,20.52
2022-07-26T03:22:26.458Z,20.45
2022-07-26T03:27:31.956Z,20.41
2022-07-26T03:32:37.413Z,20.42
2022-07-26T03:37:45.640Z,20.39
2022-07-26T03:42:50.283Z,20.42
2022-07-26T03:47:55.793Z,20.39
2022-07-26T03:53:01.221Z,20.37
2022-07-26T03:58:06.715Z,20.37
2022-07-26T04:03:12.159Z,20.38
2022-07-26T04:08:18.240Z,20.43
2022-07-26T04:13:24.200Z,20.49
2022-07-26T04:18:29.636Z,20.50
2022-07-26T04:23:35.075Z,20.56
2022-07-26T04:28:41.172Z,20.58
2022-07-26T04:33:46.916Z,20.65
2022-07-26T04:38:52.338Z,20.69
2022-07-26T04:43:58.205Z,20.67
2022-07-26T04:49:03.721Z,20.64
2022-07-26T04:54:09.732Z,20.69
2022-07-26T04:59:19.834Z,20.74
2022-07-26T05:04:22.846Z,20.88
2022-07-26T05:09:28.355Z,20.89
2022-07-26T05:14:33.869Z,20.91
2022-07-26T05:19:39.545Z,20.94
2022-07-26T05:24:45.130Z,21.01
2022-07-26T05:29:50.565Z,21.05
2022-07-26T05:34:56.200Z,21.18
2022-07-26T05:40:01.639Z,21.33
2022-07-26T05:45:08.124Z,21.42
2022-07-26T05:50:13.699Z,21.42
2022-07-26T05:55:19.150Z,21.45
2022-07-26T06:00:24.594Z,21.59
2022-07-26T06:05:30.083Z,21.88
2022-07-26T06:10:35.602Z,21.97
2022-07-26T06:15:42.387Z,22.15
2022-07-26T06:20:48.956Z,22.30
2022-07-26T06:25:54.386Z,22.43
2022-07-26T06:30:59.925Z,22.48
2022-07-26T06:36:06.123Z,22.53
2022-07-26T06:41:11.562Z,22.60
2022-07-26T06:46:17.237Z,22.39
2022-07-26T06:51:23.662Z,22.54
2022-07-26T06:56:29.100Z,22.73
2022-07-26T07:01:57.032Z,22.82
2022-07-26T07:06:41.745Z,22.89
2022-07-26T07:11:49.066Z,23.07
2022-07-26T07:16:56.760Z,23.08
2022-07-26T07:22:02.312Z,23.02
2022-07-26T07:27:07.823Z,23.01
2022-07-26T07:32:18.153Z,22.99
2022-07-26T07:37:21.799Z,23.01
2022-07-26T07:42:27.357Z,23.17
2022-07-26T07:47:34.917Z,23.10
2022-07-26T07:52:41.070Z,23.20
2022-07-26T07:57:46.556Z,23.35
2022-07-26T08:02:52.339Z,23.11
2022-07-26T08:07:57.852Z,23.09
2022-07-26T08:13:03.423Z,23.02
2022-07-26T08:18:08.941Z,23.12
2022-07-26T08:23:16.311Z,23.35
2022-07-26T08:28:45.021Z,23.39
2022-07-26T08:33:29.166Z,23.64
2022-07-26T08:38:34.678Z,23.57
2022-07-26T08:43:51.212Z,23.50
2022-07-26T08:48:47.419Z,23.63
2022-07-26T08:54:04.906Z,23.70
2022-07-26T08:59:20.599Z,23.81
2022-07-26T09:04:34.542Z,23.66
2022-07-26T09:09:42.503Z,23.82
2022-07-26T09:14:49.250Z,24.18
2022-07-26T09:20:15.861Z,24.36
2022-07-26T09:25:23.042Z,24.54
2022-07-26T09:30:31.299Z,24.48
2022-07-26T09:35:51.400Z,24.46
2022-07-26T09:40:50.964Z,24.40
2022-07-26T09:46:05.492Z,24.74
2022-07-26T09:51:12.037Z,24.90
2022-07-26T09:56:19.170Z,24.82
2022-07-26T10:01:24.653Z,24.99
2022-07-26T10:06:30.676Z,25.07
2022-07-26T10:11:57.181Z,25.21
2022-07-26T10:17:04.808Z,25.13
2022-07-26T10:22:26.092Z,25.16
2022-07-26T10:27:46.261Z,25.08
2022-07-26T10:33:03.527Z,24.74
2022-07-26T10:38:10.774Z,24.98
2022-07-26T10:48:27.355Z,25.31
2022-07-26T10:53:33.724Z,25.34
2022-07-26T10:58:44.232Z,25.31
2022-07-26T11:03:49.892Z,25.23
2022-07-26T11:08:56.076Z,24.95
2022-07-26T11:14:14.203Z,25.58
2022-07-26T11:19:21.670Z,24.72
2022-07-26T11:24:27.551Z,24.61
2022-07-26T11:29:38.112Z,24.65
2022-07-26T11:34:42.579Z,24.67
2022-07-26T11:39:48.759Z,24.51
2022-07-26T11:45:06.186Z,24.54
2022-07-26T11:50:18.700Z,24.75
2022-07-26T11:55:27.428Z,24.75
2022-07-26T12:00:33.146Z,24.87
2022-07-26T12:05:38.739Z,24.87
2022-07-26T12:10:44.420Z,24.85
2022-07-26T12:15:52.873Z,24.97
2022-07-26T12:21:08.858Z,24.76
2022-07-26T12:26:30.847Z,24.62
2022-07-26T12:31:36.477Z,24.63
2022-07-26T12:36:42.015Z,24.45
2022-07-26T12:41:49.146Z,24.50
2022-07-26T12:46:55.108Z,24.79
2022-07-26T12:52:00.546Z,24.86
2022-07-26T12:57:06.459Z,24.69
2022-07-26T13:02:12.304Z,24.62
2022-07-26T13:07:19.398Z,24.25
2022-07-26T13:12:25.068Z,23.88
2022-07-26T13:17:30.498Z,23.60
2022-07-26T13:22:36.956Z,23.53
2022-07-26T13:27:44.817Z,23.60
2022-07-26T13:32:49.766Z,23.39
2022-07-26T13:37:55.198Z,23.08
2022-07-26T13:43:00.859Z,22.98
2022-07-26T13:48:07.092Z,22.83
2022-07-26T13:53:12.635Z,22.90
2022-07-26T13:58:19.968Z,22.72
2022-07-26T14:03:26.233Z,22.93
2022-07-26T14:08:31.739Z,22.81
2022-07-26T14:13:37.189Z,22.94
2022-07-26T14:18:42.614Z,22.91
2022-07-26T14:23:48.094Z,23.02
2022-07-26T14:28:54.370Z,23.01
2022-07-26T14:34:00.066Z,23.17
2022-07-26T14:39:06.236Z,23.24
2022-07-26T14:44:12.278Z,23.23
2022-07-26T14:49:18.099Z,23.31
2022-07-26T14:54:23.548Z,23.29
2022-07-26T14:59:29.584Z,23.54
2022-07-26T15:04:35.107Z,23.49
2022-07-26T15:09:40.689Z,23.76
2022-07-26T15:14:46.209Z,23.76
2022-07-26T15:19:51.711Z,23.67
2022-07-26T15:24:57.184Z,23.30
2022-07-26T15:30:06.064Z,23.75
2022-07-26T15:35:14.486Z,23.78
2022-07-26T15:40:20.850Z,23.51
2022-07-26T15:45:26.944Z,23.86
2022-07-26T15:50:33.106Z,23.95
2022-07-26T15:55:38.620Z,23.69
2022-07-26T16:00:44.366Z,23.58
2022-07-26T16:05:49.902Z,23.57
2022-07-26T16:10:55.474Z,23.65
2022-07-26T16:16:01.119Z,23.83
2022-07-26T16:21:07.331Z,23.82
2022-07-26T16:26:12.776Z,23.70
2022-07-26T16:31:18.367Z,23.69
2022-07-26T16:36:24.049Z,23.69
2022-07-26T16:41:32.477Z,23.58
2022-07-26T16:46:38.095Z,23.67
2022-07-26T16:51:43.679Z,24.23
2022-07-26T16:56:49.190Z,24.26
2022-07-26T17:01:55.422Z,24.40
2022-07-26T17:07:23.986Z,24.91
2022-07-26T17:12:09.347Z,24.13
2022-07-26T17:17:14.784Z,24.01
2022-07-26T17:22:21.608Z,24.34
2022-07-26T17:27:27.041Z,24.28
2022-07-26T17:32:32.566Z,24.25
2022-07-26T17:37:38.187Z,24.10
2022-07-26T17:42:45.837Z,24.56
2022-07-26T17:47:51.390Z,23.68
2022-07-26T17:52:57.165Z,23.51
2022-07-26T17:58:31.761Z,23.62
2022-07-26T18:03:37.374Z,23.33
2022-07-26T18:08:42.932Z,23.65
2022-07-26T18:13:48.500Z,23.79
2022-07-26T18:18:54.303Z,23.95
2022-07-26T18:24:15.908Z,24.13
2022-07-26T18:29:07.815Z,23.97
2022-07-26T18:34:13.996Z,23.88
2022-07-26T18:39:19.613Z,23.73
2022-07-26T18:44:25.185Z,23.56
2022-07-26T18:49:32.237Z,23.28
2022-07-26T18:54:38.751Z,23.12
2022-07-26T18:59:44.229Z,23.08
2022-07-26T19:04:49.781Z,22.98
2022-07-26T19:09:58.652Z,22.92
2022-07-26T19:15:03.489Z,22.74
2022-07-26T19:20:10.830Z,22.51
2022-07-26T19:25:16.497Z,22.22
2022-07-26T19:30:22.015Z,22.14
2022-07-26T19:35:29.835Z,22.01
2022-07-26T19:40:35.525Z,21.96
2022-07-26T19:45:41.409Z,21.94
2022-07-26T19:50:47.135Z,21.88
2022-07-26T19:55:52.703Z,21.83
2022-07-26T20:00:58.260Z,21.66
2022-07-26T20:06:03.923Z,21.61
2022-07-26T20:11:09.614Z,21.57
2022-07-26T20:16:15.453Z,21.55
2022-07-26T20:21:21.088Z,21.51
2022-07-26T20:26:26.604Z,21.34
2022-07-26T20:31:32.173Z,20.98
2022-07-26T20:36:37.957Z,20.94
2022-07-26T20:41:43.635Z,20.72
2022-07-26T20:46:49.157Z,20.65
2022-07-26T20:51:54.833Z,20.46
2022-07-26T20:57:00.342Z,20.36
2022-07-26T21:02:07.849Z,20.34
2022-07-26T21:07:14.800Z,20.22
2022-07-26T21:12:21.648Z,20.17
2022-07-26T21:17:32.672Z,20.16
2022-07-26T21:22:34.818Z,19.97
2022-07-26T21:27:40.535Z,19.85
2022-07-26T21:32:46.096Z,19.75
2022-07-26T21:37:51.770Z,19.56
2022-07-26T21:42:57.235Z,19.47
2022-07-26T21:48:03.715Z,19.38
2022-07-26T21:53:09.232Z,19.31
2022-07-26T21:58:14.742Z,19.21
2022-07-26T22:03:20.225Z,19.14
2022-07-26T22:08:26.288Z,19.12
2022-07-26T22:13:32.464Z,19.06
2022-07-26T22:18:38.236Z,18.93
2022-07-26T22:23:43.844Z,18.82
2022-07-26T22:28:49.457Z,18.79
2022-07-26T22:33:55.031Z,18.69
2022-07-26T22:39:00.594Z,18.61
2022-07-26T22:44:06.348Z,18.48
2022-07-26T22:49:14.901Z,18.37
2022-07-26T22:54:19.129Z,18.25
2022-07-26T22:59:25.619Z,18.27
2022-07-26T23:04:31.183Z,18.25
2022-07-26T23:09:36.760Z,18.16
2022-07-26T23:14:42.329Z,18.03
2022-07-26T23:19:47.875Z,17.87
2022-07-26T23:24:53.442Z,17.78
2022-07-26T23:29:58.958Z,17.67
2022-07-26T23:35:04.723Z,17.57
2022-07-26T23:40:11.411Z,17.55
2022-07-26T23:45:16.924Z,17.54
2022-07-26T23:50:24.842Z,17.50
2022-07-26T23:55:35.590Z,17.44
